Time;durP1;ratioP1;P1;durP2;ratioP2;P2;SDS_P1;SDS_P2;PMS_P1;PMS_P2;Temp;Humidity;BMP_temperature;BMP_pressure;BME280_temperature;BME280_humidity;BME280_pressure;Samples;Min_cycle;Max_cycle;Signal;HPM_P1;HPM_P2
2022/08/13 00:00:58;;;;;;;0.30;0.30;;;;;;;25.59;27.75;101044.94;5194513;28;20095;-81
2022/08/13 00:03:30;;;;;;;0.30;0.30;;;;;;;25.56;28.16;101043.38;5195609;28;20030;-80
2022/08/13 00:06:08;;;;;;;0.20;0.20;;;;;;;25.56;27.91;101042.53;5189249;28;20554;-80
2022/08/13 00:08:41;;;;;;;1.23;0.85;;;;;;;25.56;27.64;101046.06;5173779;28;20068;-80
2022/08/13 00:12:56;;;;;;;0.57;0.43;;;;;;;25.48;28.11;101039.66;5180028;28;20935;-80
2022/08/13 00:14:09;;;;;;;0.40;0.40;;;;;;;25.43;28.02;101043.56;5189013;28;20051;-80
2022/08/13 00:16:40;;;;;;;1.00;0.90;;;;;;;25.43;28.14;101045.41;5209673;28;20049;-80
2022/08/13 00:19:10;;;;;;;0.65;0.65;;;;;;;25.39;28.43;101039.47;5184396;28;20117;-80
2022/08/13 00:21:44;;;;;;;6.75;1.50;;;;;;;25.38;28.49;101048.47;5164824;28;20065;-80
2022/08/13 00:24:14;;;;;;;0.43;0.43;;;;;;;25.34;28.28;101049.69;5207904;28;20025;-80
2022/08/13 00:26:45;;;;;;;0.30;0.30;;;;;;;25.31;28.84;101052.66;5214881;28;20068;-80
2022/08/13 00:29:16;;;;;;;0.40;0.40;;;;;;;25.30;28.22;101053.63;5196438;28;20366;-80
2022/08/13 00:31:50;;;;;;;1.17;1.08;;;;;;;25.25;28.87;101053.16;5189315;28;20101;-80
2022/08/13 00:34:20;;;;;;;0.65;0.65;;;;;;;25.25;28.69;101050.47;5169052;28;20030;-80
2022/08/13 00:36:51;;;;;;;0.60;0.60;;;;;;;25.20;28.89;101056.25;5194588;28;20056;-79
2022/08/13 00:39:23;;;;;;;0.20;0.20;;;;;;;25.19;29.01;101053.66;5181420;28;20047;-80
2022/08/13 00:41:54;;;;;;;0.70;0.70;;;;;;;25.16;28.66;101048.59;5203459;28;20076;-80
2022/08/13 00:44:25;;;;;;;0.40;0.40;;;;;;;25.13;28.91;101042.47;5176553;28;20029;-80
2022/08/13 00:48:41;;;;;;;0.43;0.43;;;;;;;25.09;28.85;101041.03;5170885;28;20502;-80
2022/08/13 00:49:47;;;;;;;1.65;1.05;;;;;;;25.07;28.96;101043.00;5195465;28;20052;-80
2022/08/13 00:52:20;;;;;;;0.40;0.40;;;;;;;25.05;29.02;101039.59;5186254;28;20045;-80
2022/08/13 00:54:52;;;;;;;0.30;0.30;;;;;;;25.02;28.89;101037.16;5195526;28;20120;-80
2022/08/13 00:57:22;;;;;;;0.30;0.30;;;;;;;25.01;28.58;101038.13;5181270;28;20056;-80
2022/08/13 00:59:53;;;;;;;0.32;0.32;;;;;;;24.95;29.07;101038.66;5195297;28;20026;-78
2022/08/13 01:02:24;;;;;;;0.77;0.77;;;;;;;24.94;28.79;101047.66;5192601;28;20077;-79
2022/08/13 01:04:55;;;;;;;0.30;0.30;;;;;;;24.93;28.85;101040.59;5191872;28;20030;-80
2022/08/13 01:07:25;;;;;;;0.95;0.52;;;;;;;24.89;29.13;101045.38;5162355;28;20075;-80
2022/08/13 01:09:56;;;;;;;0.20;0.20;;;;;;;24.81;29.28;101042.47;5180875;28;20033;-79
2022/08/13 01:12:27;;;;;;;0.30;0.30;;;;;;;24.73;29.45;101040.44;5164819;28;20423;-80
2022/08/13 01:15:00;;;;;;;0.40;0.40;;;;;;;24.66;29.52;101037.38;5192592;28;20033;-80
2022/08/13 01:17:31;;;;;;;;;;;;;;;24.64;30.19;101042.00;5169566;28;20368;-81
2022/08/13 01:20:03;;;;;;;0.70;0.70;;;;;;;24.62;29.60;101043.09;5208385;28;20265;-81
2022/08/13 01:22:42;;;;;;;0.30;0.30;;;;;;;24.57;29.71;101035.44;5183209;28;20038;-81
2022/08/13 01:25:13;;;;;;;0.28;0.28;;;;;;;24.53;29.67;101028.63;5160466;28;20117;-81
2022/08/13 01:27:47;;;;;;;0.32;0.32;;;;;;;24.49;30.10;101038.75;5186364;28;20091;-79
2022/08/13 01:30:23;;;;;;;0.30;0.30;;;;;;;24.42;30.16;101034.84;5191842;28;20033;-80
2022/08/13 01:32:54;;;;;;;0.20;0.20;;;;;;;24.42;29.47;101037.53;5199084;28;20254;-81
2022/08/13 01:35:26;;;;;;;0.43;0.43;;;;;;;24.36;29.78;101038.91;5189940;28;20018;-81
2022/08/13 01:37:57;;;;;;;0.30;0.30;;;;;;;24.32;30.25;101036.59;5201354;28;20064;-80
2022/08/13 01:40:30;;;;;;;0.63;0.63;;;;;;;24.32;29.91;101041.94;5172005;28;20022;-80
2022/08/13 01:43:05;;;;;;;0.40;0.40;;;;;;;24.26;30.67;101048.66;5208740;28;20030;-80
2022/08/13 01:45:43;;;;;;;0.32;0.32;;;;;;;24.23;30.52;101037.31;5210501;28;20034;-80
2022/08/13 01:51:08;;;;;;;0.75;0.70;;;;;;;24.16;30.49;101032.47;5222522;28;20071;-80
2022/08/13 01:53:40;;;;;;;0.50;0.50;;;;;;;24.13;30.74;101038.06;5205895;28;20082;-80
2022/08/13 01:56:13;;;;;;;8.52;0.70;;;;;;;24.07;31.00;101035.88;5203226;28;20037;-79
2022/08/13 01:58:52;;;;;;;0.32;0.32;;;;;;;24.05;30.54;101037.81;5203918;28;20053;-80
2022/08/13 02:01:25;;;;;;;0.32;0.32;;;;;;;24.02;30.84;101030.00;5209227;28;20043;-79
2022/08/13 02:03:57;;;;;;;0.40;0.40;;;;;;;23.98;30.66;101040.13;5205490;28;20029;-79
2022/08/13 02:06:31;;;;;;;1.33;0.80;;;;;;;23.95;30.56;101039.50;5190445;28;20087;-80
2022/08/13 02:09:09;;;;;;;0.40;0.40;;;;;;;23.94;30.43;101037.78;5170956;28;20041;-80
2022/08/13 02:11:39;;;;;;;0.70;0.50;;;;;;;23.92;30.64;101039.72;5162466;28;20053;-79
2022/08/13 02:14:14;;;;;;;1.05;0.95;;;;;;;23.87;30.54;101040.94;5166883;28;20666;-80
2022/08/13 02:16:44;;;;;;;0.67;0.50;;;;;;;23.87;30.80;101037.41;5176080;28;20292;-79
2022/08/13 02:19:15;;;;;;;0.68;0.60;;;;;;;23.83;30.89;101031.44;5201177;28;20032;-79
2022/08/13 02:21:46;;;;;;;0.68;0.68;;;;;;;23.80;30.70;101036.19;5164113;28;20494;-80
2022/08/13 02:24:17;;;;;;;0.52;0.52;;;;;;;23.79;30.64;101045.19;5168348;28;20063;-80
2022/08/13 02:26:48;;;;;;;0.30;0.30;;;;;;;23.75;31.02;101041.91;5205571;28;20044;-80
2022/08/13 02:29:19;;;;;;;0.40;0.40;;;;;;;23.73;31.07;101043.84;5178424;28;20026;-79
2022/08/13 02:31:50;;;;;;;0.20;0.20;;;;;;;23.72;30.54;101045.66;5209806;28;20044;-80
2022/08/13 02:34:20;;;;;;;2.25;2.05;;;;;;;23.70;31.05;101047.63;5181740;28;20098;-80
2022/08/13 02:36:51;;;;;;;0.20;0.20;;;;;;;23.71;30.68;101049.34;5162657;28;20141;-80
2022/08/13 02:39:22;;;;;;;0.20;0.20;;;;;;;23.68;31.12;101049.56;5181720;28;20563;-81
2022/08/13 02:41:54;;;;;;;0.63;0.52;;;;;;;23.68;30.95;101043.31;5171917;28;20102;-80
2022/08/13 02:44:25;;;;;;;0.30;0.30;;;;;;;23.67;30.94;101041.66;5185362;28;20053;-79
2022/08/13 02:46:55;;;;;;;0.50;0.50;;;;;;;23.65;31.52;101043.59;5219973;28;20037;-79
2022/08/13 02:49:30;;;;;;;0.25;0.25;;;;;;;23.65;30.66;101040.91;5183092;28;20132;-80
2022/08/13 02:52:07;;;;;;;0.50;0.50;;;;;;;23.62;31.24;101041.13;5175909;28;20112;-80
2022/08/13 02:54:54;;;;;;;0.40;0.40;;;;;;;23.61;31.26;101047.47;5183110;28;20049;-80
2022/08/13 02:57:25;;;;;;;0.70;0.70;;;;;;;23.58;31.33;101044.06;5202560;28;20092;-82
2022/08/13 02:59:55;;;;;;;0.20;0.20;;;;;;;23.58;30.98;101044.06;5195438;28;20049;-82
2022/08/13 03:03:17;;;;;;;;;;;;;;;;;;;;;
2022/08/13 03:07:05;;;;;;;0.57;0.57;;;;;;;23.53;31.62;101046.22;5146446;28;20045;-82
2022/08/13 03:10:14;;;;;;;0.30;0.30;;;;;;;23.52;31.17;101049.88;5201377;28;20033;-81
2022/08/13 03:13:34;;;;;;;0.50;0.50;;;;;;;23.49;31.24;101044.78;5154137;28;20050;-82
2022/08/13 03:16:26;;;;;;;0.25;0.25;;;;;;;23.47;31.48;101044.03;5184936;28;20042;-81
2022/08/13 03:18:58;;;;;;;0.30;0.30;;;;;;;23.46;31.11;101050.34;5197756;28;20025;-81
2022/08/13 03:21:36;;;;;;;0.25;0.25;;;;;;;23.42;31.54;101038.19;5177219;28;20042;-81
2022/08/13 03:24:18;;;;;;;1.00;0.90;;;;;;;23.42;31.35;101043.53;5195765;28;20087;-81
2022/08/13 03:26:50;;;;;;;3.38;0.60;;;;;;;23.41;31.51;101041.84;5171240;28;20529;-81
2022/08/13 03:29:28;;;;;;;0.70;0.70;;;;;;;23.36;31.50;101042.19;5177416;28;20072;-81
2022/08/13 03:31:58;;;;;;;0.70;0.70;;;;;;;23.39;31.24;101038.41;5183201;28;20064;-81
2022/08/13 03:34:29;;;;;;;1.13;1.05;;;;;;;23.36;31.55;101044.84;5216792;28;20033;-81
2022/08/13 03:37:01;;;;;;;1.98;0.50;;;;;;;23.34;31.82;101048.63;5175616;28;20057;-81
2022/08/13 03:39:34;;;;;;;0.70;0.70;;;;;;;23.30;31.76;101052.50;5181454;28;20035;-81
2022/08/13 03:42:06;;;;;;;0.22;0.22;;;;;;;23.32;31.70;101046.03;5159010;28;20445;-80
2022/08/13 03:44:41;;;;;;;0.60;0.60;;;;;;;23.25;32.18;101047.50;5180088;28;20179;-80
2022/08/13 03:47:13;;;;;;;0.43;0.43;;;;;;;23.22;31.85;101045.91;5198379;28;20189;-80
2022/08/13 03:49:46;;;;;;;0.30;0.30;;;;;;;23.22;31.36;101047.75;5147827;28;20110;-80
2022/08/13 03:52:16;;;;;;;0.85;0.75;;;;;;;23.20;32.09;101047.84;5166178;28;20267;-80
2022/08/13 03:54:47;;;;;;;0.40;0.40;;;;;;;23.15;32.29;101044.63;5164303;28;20123;-81
2022/08/13 03:57:19;;;;;;;0.30;0.30;;;;;;;23.12;32.31;101044.84;5165791;28;20037;-81
2022/08/13 03:59:49;;;;;;;0.30;0.30;;;;;;;23.09;32.72;101047.78;5179519;28;20029;-81
2022/08/13 04:02:23;;;;;;;0.63;0.60;;;;;;;23.06;32.12;101048.84;5203820;28;20120;-80
2022/08/13 04:04:54;;;;;;;0.32;0.32;;;;;;;23.08;32.03;101046.06;5165365;28;20553;-80
2022/08/13 04:07:27;;;;;;;1.13;0.60;;;;;;;23.04;32.28;101047.25;5182450;28;20128;-81
2022/08/13 04:09:58;;;;;;;0.52;0.52;;;;;;;23.05;32.11;101054.31;5185492;28;20055;-81
2022/08/13 04:12:29;;;;;;;0.40;0.40;;;;;;;22.98;32.74;101055.75;5187763;28;20037;-81
2022/08/13 04:14:59;;;;;;;0.32;0.32;;;;;;;22.98;32.08;101053.06;5194214;28;20045;-81
2022/08/13 04:17:30;;;;;;;0.57;0.57;;;;;;;22.95;32.47;101051.47;5179979;28;20156;-81
2022/08/13 04:20:03;;;;;;;1.13;1.02;;;;;;;22.94;32.11;101060.47;5203221;28;20028;-81
2022/08/13 04:22:37;;;;;;;0.40;0.40;;;;;;;;;;5185698;28;20088;-81
2022/08/13 04:25:12;;;;;;;0.30;0.30;;;;;;;22.87;32.68;101059.22;5206779;28;20037;-83
2022/08/13 04:27:43;;;;;;;0.43;0.43;;;;;;;22.80;33.76;101064.16;5185149;28;20049;-81
2022/08/13 04:30:16;;;;;;;0.45;0.45;;;;;;;22.82;32.65;101066.72;5212819;28;20112;-82
2022/08/13 04:32:49;;;;;;;;;;;;;;;22.78;33.12;101060.72;5172018;28;20044;-80
2022/08/13 04:35:19;;;;;;;;;;;;;;;22.72;33.25;101072.75;5189906;28;20013;-80
2022/08/13 04:37:51;;;;;;;0.70;0.70;;;;;;;22.73;32.61;101060.22;5204481;28;19995;-81
2022/08/13 04:40:25;;;;;;;0.68;0.68;;;;;;;22.68;33.15;101063.25;5169969;28;20055;-80
2022/08/13 04:42:56;;;;;;;0.30;0.30;;;;;;;22.64;33.61;101065.28;5219696;28;20086;-81
2022/08/13 04:45:28;;;;;;;0.95;0.75;;;;;;;22.67;32.86;101064.19;5179977;28;20025;-81
2022/08/13 04:48:04;;;;;;;0.82;0.73;;;;;;;22.63;33.02;101068.91;5216405;28;20033;-80
2022/08/13 04:50:37;;;;;;;0.90;0.73;;;;;;;22.61;33.29;101065.50;5198013;28;20261;-80
2022/08/13 04:53:30;;;;;;;1.65;0.88;;;;;;;22.55;33.45;101063.28;5191346;28;20130;-80
2022/08/13 04:56:01;;;;;;;0.60;0.60;;;;;;;22.58;32.91;101067.53;5209641;28;20080;-80
2022/08/13 04:58:35;;;;;;;0.93;0.82;;;;;;;22.57;33.14;101069.38;5197142;28;20021;-81
2022/08/13 05:01:10;;;;;;;0.60;0.60;;;;;;;22.57;33.34;101065.81;5182252;28;20068;-80
2022/08/13 05:03:42;;;;;;;0.20;0.20;;;;;;;22.55;33.00;101065.09;5175618;28;20037;-80
2022/08/13 05:06:18;;;;;;;0.57;0.57;;;;;;;22.53;33.62;101067.88;5176696;28;20518;-80
2022/08/13 05:08:51;;;;;;;2.83;1.13;;;;;;;22.54;34.23;101071.41;5180109;28;20025;-81
2022/08/13 05:11:22;;;;;;;0.88;0.88;;;;;;;22.54;33.30;101069.59;5208646;28;20613;-80
2022/08/13 05:13:52;;;;;;;0.20;0.20;;;;;;;22.54;33.50;101064.22;5177715;28;20119;-81
2022/08/13 05:16:23;;;;;;;0.80;0.68;;;;;;;22.54;33.97;101066.91;5180266;28;20099;-81
2022/08/13 05:18:54;;;;;;;0.98;0.93;;;;;;;22.54;33.76;101069.59;5183882;28;20025;-81
2022/08/13 05:21:25;;;;;;;0.68;0.68;;;;;;;22.54;33.39;101069.59;5205045;28;20080;-81
2022/08/13 05:23:55;;;;;;;0.40;0.40;;;;;;;22.54;34.21;101072.25;5191313;28;20037;-80
2022/08/13 05:26:31;;;;;;;0.50;0.50;;;;;;;22.53;34.12;101073.22;5201136;28;20103;-79
2022/08/13 05:29:05;;;;;;;0.40;0.40;;;;;;;22.54;33.81;101074.94;5207757;28;20041;-80
2022/08/13 05:31:53;;;;;;;0.40;0.40;;;;;;;22.54;33.68;101080.28;5176181;28;20109;-80
2022/08/13 05:34:25;;;;;;;0.55;0.55;;;;;;;22.53;34.22;101078.56;5183073;28;20069;-81
2022/08/13 05:37:16;;;;;;;0.50;0.50;;;;;;;22.56;33.59;101075.69;5213139;28;20033;-82
2022/08/13 05:39:47;;;;;;;0.35;0.35;;;;;;;22.54;34.57;101074.94;5209237;28;20121;-81
2022/08/13 05:42:18;;;;;;;0.40;0.40;;;;;;;22.60;33.95;101082.50;5202723;28;20033;-80
2022/08/13 05:44:49;;;;;;;0.32;0.32;;;;;;;22.59;34.01;101080.81;5202099;28;20101;-81
2022/08/13 05:47:19;;;;;;;0.28;0.28;;;;;;;22.57;33.91;101077.41;5192500;28;20033;-80
2022/08/13 05:49:51;;;;;;;0.25;0.25;;;;;;;22.58;33.70;101073.75;5187122;28;20128;-80
2022/08/13 05:52:26;;;;;;;0.40;0.40;;;;;;;22.63;33.90;101073.44;5185173;28;20371;-82
2022/08/13 05:54:57;;;;;;;1.75;0.77;;;;;;;22.62;33.73;101077.91;5191327;28;20048;-80
2022/08/13 05:57:38;;;;;;;0.20;0.20;;;;;;;22.65;34.17;101079.50;5186164;28;20051;-80
2022/08/13 06:05:48;;;;;;;0.20;0.20;;;;;;;22.77;34.34;101077.75;5195465;28;20044;-80
2022/08/13 06:08:23;;;;;;;0.30;0.30;;;;;;;22.84;34.42;101086.19;5180112;28;20041;-80
2022/08/13 06:10:57;;;;;;;0.50;0.50;;;;;;;22.89;34.39;101079.53;5231850;28;20541;-81
2022/08/13 06:13:30;;;;;;;1.52;1.38;;;;;;;22.97;34.55;101080.78;5199446;28;20044;-80
2022/08/13 06:16:10;;;;;;;;;;;;;;;22.99;34.20;101086.88;5192372;28;20555;-80
2022/08/13 06:18:46;;;;;;;0.43;0.40;;;;;;;23.01;33.99;101082.28;5201436;28;19916;-80
2022/08/13 06:21:18;;;;;;;1.85;1.00;;;;;;;23.06;34.58;101093.47;5202900;28;20057;-81
2022/08/13 06:23:56;;;;;;;0.30;0.30;;;;;;;23.09;33.97;101090.59;5168701;28;20510;-80
2022/08/13 06:26:29;;;;;;;0.73;0.40;;;;;;;23.11;34.09;101083.28;5159244;28;20431;-81
2022/08/13 06:29:01;;;;;;;;;;;;;;;23.10;34.34;101081.56;5198015;28;20036;-81
2022/08/13 06:31:38;;;;;;;0.30;0.30;;;;;;;23.12;34.21;101090.34;5183230;28;19912;-80
2022/08/13 06:34:10;;;;;;;0.50;0.50;;;;;;;23.13;34.35;101085.88;5243056;28;20037;-79
2022/08/13 06:36:44;;;;;;;0.50;0.50;;;;;;;23.14;34.52;101085.75;5224148;28;20478;-79
2022/08/13 06:39:19;;;;;;;0.30;0.30;;;;;;;23.19;34.69;101082.75;5190161;28;20171;-81
2022/08/13 06:41:49;;;;;;;0.60;0.60;;;;;;;23.18;34.51;101087.22;5174447;28;20048;-79
2022/08/13 06:44:23;;;;;;;0.68;0.68;;;;;;;23.32;34.40;101088.03;5184392;28;20452;-80
2022/08/13 06:46:54;;;;;;;0.30;0.30;;;;;;;23.30;34.52;101093.53;5177959;28;20057;-80
2022/08/13 06:49:25;;;;;;;0.30;0.30;;;;;;;23.35;34.40;101091.34;5176457;28;20037;-79
2022/08/13 06:51:57;;;;;;;0.65;0.65;;;;;;;23.27;35.08;101089.22;5192735;28;20037;-80
2022/08/13 06:54:28;;;;;;;3.90;0.68;;;;;;;23.37;34.31;101088.53;5198089;28;20060;-79
2022/08/13 06:57:02;;;;;;;0.30;0.30;;;;;;;23.39;34.66;101098.16;5176021;28;20049;-79
2022/08/13 06:59:33;;;;;;;0.90;0.65;;;;;;;23.47;34.54;101100.25;5173184;28;20101;-80
2022/08/13 07:02:16;;;;;;;0.30;0.30;;;;;;;23.50;35.00;101104.53;5194982;28;20109;-79
2022/08/13 07:04:48;;;;;;;;;;;;;;;23.47;34.83;101100.25;5168501;28;20041;-79
2022/08/13 07:07:22;;;;;;;0.73;0.73;;;;;;;23.48;35.21;101103.78;5203734;28;20435;-79
2022/08/13 07:09:54;;;;;;;0.47;0.47;;;;;;;23.48;36.42;101101.97;5184383;28;20055;-79
2022/08/13 07:12:28;;;;;;;0.20;0.20;;;;;;;23.50;35.38;101105.41;5221266;28;20055;-79
2022/08/13 07:14:58;;;;;;;0.35;0.35;;;;;;;23.61;35.68;101101.03;5186344;28;20040;-80
2022/08/13 07:17:29;;;;;;;0.52;0.52;;;;;;;23.57;35.08;101093.25;5199205;28;20406;-80
2022/08/13 07:20:02;;;;;;;0.40;0.40;;;;;;;23.62;35.14;101097.38;5204646;28;20082;-80
2022/08/13 07:22:34;;;;;;;;;;;;;;;23.61;35.71;101101.03;5200500;28;20568;-80
2022/08/13 07:25:10;;;;;;;0.20;0.20;;;;;;;23.64;35.19;101100.81;5203924;28;20137;-80
2022/08/13 07:27:41;;;;;;;0.88;0.88;;;;;;;23.73;35.31;101100.09;5165874;28;20406;-80
2022/08/13 07:30:14;;;;;;;0.70;0.70;;;;;;;23.73;36.02;101097.41;5189485;28;20036;-77
2022/08/13 07:32:45;;;;;;;0.22;0.22;;;;;;;23.70;35.16;101092.28;5198923;28;20045;-78
2022/08/13 07:35:16;;;;;;;0.30;0.30;;;;;;;23.73;35.75;101094.75;5208732;28;20032;-78
2022/08/13 07:37:50;;;;;;;0.20;0.20;;;;;;;23.76;35.46;101104.38;5189847;28;20048;-78
2022/08/13 07:40:24;;;;;;;0.25;0.25;;;;;;;23.87;35.24;101104.41;5199023;28;20596;-78
2022/08/13 07:42:56;;;;;;;1.70;0.77;;;;;;;23.84;35.34;101107.31;5186173;28;20531;-78
2022/08/13 07:45:27;;;;;;;0.30;0.30;;;;;;;23.80;36.12;101106.69;5218255;28;20043;-78
2022/08/13 07:47:58;;;;;;;0.30;0.30;;;;;;;23.93;35.18;101109.28;5187641;28;20037;-79
2022/08/13 07:50:30;;;;;;;0.32;0.32;;;;;;;23.92;35.25;101109.41;5227986;28;20037;-78
2022/08/13 07:53:01;;;;;;;0.20;0.20;;;;;;;24.00;35.05;101110.53;5238121;28;20052;-79
2022/08/13 07:55:31;;;;;;;0.75;0.40;;;;;;;24.03;35.15;101112.09;5184498;28;20041;-79
2022/08/13 07:58:02;;;;;;;0.40;0.40;;;;;;;24.05;35.23;101105.66;5197448;28;20040;-79
2022/08/13 08:00:34;;;;;;;0.43;0.43;;;;;;;24.09;35.40;101106.25;5181426;28;20044;-80
2022/08/13 08:03:07;;;;;;;0.30;0.30;;;;;;;24.20;35.31;101108.13;5201051;28;20033;-78
2022/08/13 08:05:41;;;;;;;0.35;0.35;;;;;;;24.19;35.55;101106.41;5196499;28;25250;-78
2022/08/13 08:08:13;;;;;;;0.40;0.40;;;;;;;24.19;35.31;101095.69;5201825;28;20037;-79
2022/08/13 08:10:45;;;;;;;0.20;0.20;;;;;;;24.29;35.51;101111.88;5201290;28;20555;-78
2022/08/13 08:13:16;;;;;;;0.52;0.52;;;;;;;24.30;35.20;101102.88;5197642;28;20335;-78
2022/08/13 08:15:47;;;;;;;2.35;2.25;;;;;;;24.31;35.37;101102.75;5224044;28;20128;-78
2022/08/13 08:18:20;;;;;;;0.35;0.35;;;;;;;24.34;35.38;101099.84;5196849;28;20500;-80
2022/08/13 08:21:07;;;;;;;0.60;0.60;;;;;;;24.41;35.39;101100.19;5217886;28;20045;-78
2022/08/13 08:23:39;;;;;;;0.60;0.60;;;;;;;24.45;35.27;101107.00;5186485;28;20426;-79
2022/08/13 08:26:09;;;;;;;0.20;0.20;;;;;;;24.47;35.15;101098.84;5211518;28;20053;-79
2022/08/13 08:28:43;;;;;;;0.22;0.22;;;;;;;24.52;34.96;101099.34;5186384;28;20045;-79
2022/08/13 08:31:14;;;;;;;0.20;0.20;;;;;;;24.50;35.06;101099.44;5200836;28;20049;-81
2022/08/13 08:33:47;;;;;;;0.20;0.20;;;;;;;24.55;35.04;101100.91;5189831;28;20036;-80
2022/08/13 08:36:17;;;;;;;0.20;0.20;;;;;;;24.68;35.11;101109.69;5193218;28;20041;-78
2022/08/13 08:44:39;;;;;;;0.30;0.30;;;;;;;24.76;34.79;101098.34;5193314;28;20034;-79
2022/08/13 08:47:20;;;;;;;0.20;0.20;;;;;;;24.85;34.61;101096.72;5191156;28;20072;-79
2022/08/13 08:49:55;;;;;;;0.20;0.20;;;;;;;24.89;34.72;101098.22;5203922;28;20405;-79
2022/08/13 08:55:19;;;;;;;0.20;0.20;;;;;;;25.02;34.37;101104.25;5207141;28;20580;-78
2022/08/13 08:57:52;;;;;;;0.20;0.20;;;;;;;24.96;34.38;101097.56;5187709;28;20025;-80
2022/08/13 09:00:23;;;;;;;;;;;;;;;24.99;34.38;101100.00;5202988;28;20034;-79
2022/08/13 09:02:55;;;;;;;0.45;0.45;;;;;;;25.08;34.53;101095.69;5189935;28;19909;-78
2022/08/13 09:05:26;;;;;;;0.75;0.75;;;;;;;25.15;34.24;101093.34;5188830;28;20041;-77
2022/08/13 09:08:00;;;;;;;0.30;0.30;;;;;;;25.16;34.21;101088.84;5195175;28;20084;-77
2022/08/13 09:10:36;;;;;;;0.60;0.60;;;;;;;25.19;33.86;101088.56;5209715;28;20056;-79
2022/08/13 09:13:06;;;;;;;0.20;0.20;;;;;;;25.26;34.08;101095.13;5195561;28;20059;-80
2022/08/13 09:15:40;;;;;;;0.20;0.20;;;;;;;25.28;33.75;101086.00;5190943;28;20112;-79
2022/08/13 09:18:11;;;;;;;0.25;0.25;;;;;;;25.34;33.80;101081.06;5196364;28;20028;-80
2022/08/13 09:20:42;;;;;;;9.23;1.55;;;;;;;25.37;33.58;101088.88;5180860;28;20037;-78
2022/08/13 09:23:15;;;;;;;0.20;0.20;;;;;;;25.42;33.91;101084.00;5184022;28;20166;-79
2022/08/13 09:25:51;;;;;;;0.63;0.55;;;;;;;25.48;33.44;101085.31;5174596;28;20045;-78
2022/08/13 09:28:26;;;;;;;0.20;0.20;;;;;;;25.49;33.56;101082.50;5199526;28;20029;-77
2022/08/13 09:30:57;;;;;;;0.30;0.30;;;;;;;25.63;33.39;101077.75;5218674;28;20100;-79
2022/08/13 09:33:28;;;;;;;0.20;0.20;;;;;;;25.70;33.66;101078.97;5182266;28;20041;-76
2022/08/13 09:35:59;;;;;;;0.30;0.30;;;;;;;25.68;32.93;101071.03;5218634;28;20052;-80
2022/08/13 09:38:30;;;;;;;0.20;0.20;;;;;;;25.79;33.45;101069.25;5203846;28;20021;-79
2022/08/13 09:41:17;;;;;;;0.20;0.20;;;;;;;25.80;33.24;101076.34;5178907;28;20044;-81
2022/08/13 09:43:49;;;;;;;0.10;0.10;;;;;;;25.87;33.61;101069.44;5173312;28;20383;-79
2022/08/13 09:46:23;;;;;;;0.20;0.20;;;;;;;25.88;33.38;101071.16;5188867;28;20149;-80
2022/08/13 09:48:55;;;;;;;0.43;0.43;;;;;;;25.95;33.18;101069.63;5185221;28;20036;-78
2022/08/13 09:51:31;;;;;;;0.70;0.70;;;;;;;26.05;33.11;101081.28;5177911;28;20037;-78
2022/08/13 09:54:23;;;;;;;0.30;0.30;;;;;;;26.01;33.01;101073.63;5194715;28;20082;-80
2022/08/13 09:56:57;;;;;;;0.20;0.20;;;;;;;26.09;33.07;101076.53;5186183;28;20730;-80
2022/08/13 09:59:29;;;;;;;0.10;0.10;;;;;;;26.13;32.68;101072.56;5191135;28;20033;-81
2022/08/13 10:02:09;;;;;;;3.85;3.20;;;;;;;26.27;32.92;101068.66;5166051;28;20732;-81
2022/08/13 10:04:41;;;;;;;0.50;0.50;;;;;;;26.24;32.70;101055.47;5185228;28;20025;-80
2022/08/13 10:07:12;;;;;;;0.17;0.17;;;;;;;26.24;32.84;101061.72;5198894;28;20060;-80
2022/08/13 10:09:42;;;;;;;0.57;0.57;;;;;;;26.35;32.62;101059.91;5205838;28;20029;-81
2022/08/13 10:12:14;;;;;;;0.30;0.30;;;;;;;26.39;32.80;101053.25;5183269;28;20043;-80
2022/08/13 10:14:45;;;;;;;0.20;0.20;;;;;;;26.38;32.75;101049.75;5201656;28;20814;-80
2022/08/13 10:17:16;;;;;;;0.20;0.20;;;;;;;26.46;32.70;101050.88;5200993;28;20071;-80
2022/08/13 10:19:49;;;;;;;1.10;0.87;;;;;;;26.49;32.48;101047.91;5197825;28;20036;-80
2022/08/13 10:22:20;;;;;;;0.40;0.40;;;;;;;26.58;32.87;101039.00;5192179;28;20104;-80
2022/08/13 10:24:51;;;;;;;0.50;0.50;;;;;;;26.65;32.29;101042.84;5169953;28;20529;-81
2022/08/13 10:27:21;;;;;;;0.20;0.20;;;;;;;26.65;31.64;101029.38;5183919;28;20079;-80
2022/08/13 10:30:02;;;;;;;0.40;0.40;;;;;;;26.95;31.19;101026.75;5204867;28;20041;-78
2022/08/13 10:32:33;;;;;;;0.50;0.50;;;;;;;26.90;30.69;101027.16;5187485;28;20072;-78
2022/08/13 10:35:05;;;;;;;0.30;0.30;;;;;;;26.85;31.43;101021.38;5208409;28;21045;-79
2022/08/13 10:37:45;;;;;;;0.40;0.40;;;;;;;26.89;31.79;101024.63;5204192;28;20697;-78
2022/08/13 10:40:16;;;;;;;0.30;0.30;;;;;;;26.91;31.97;101018.09;5210749;28;20037;-79
2022/08/13 10:42:46;;;;;;;0.20;0.20;;;;;;;26.94;32.09;101017.84;5190736;28;20121;-81
2022/08/13 10:45:19;;;;;;;0.20;0.20;;;;;;;27.07;31.82;101020.25;5205321;28;20040;-78
2022/08/13 10:47:51;;;;;;;;;;;;;;;27.06;31.56;101025.78;5173370;28;20067;-79
2022/08/13 10:50:29;;;;;;;0.20;0.20;;;;;;;27.13;32.04;101016.97;5199287;28;19943;-78
2022/08/13 10:52:59;;;;;;;0.20;0.20;;;;;;;27.17;31.41;101015.72;5172997;28;20013;-79
2022/08/13 10:55:30;;;;;;;0.20;0.20;;;;;;;27.25;31.87;101004.19;5169515;28;20544;-80
2022/08/13 10:58:03;;;;;;;0.20;0.20;;;;;;;27.31;30.78;101010.84;5204008;28;20059;-80
2022/08/13 11:00:34;;;;;;;0.30;0.30;;;;;;;27.31;31.44;101000.91;5221638;28;20029;-81
2022/08/13 11:03:09;;;;;;;0.30;0.30;;;;;;;27.43;31.18;101008.88;5184379;28;20037;-77
2022/08/13 11:05:39;;;;;;;0.40;0.40;;;;;;;27.51;30.93;101000.09;5201933;28;20045;-79
2022/08/13 11:08:14;;;;;;;0.30;0.30;;;;;;;27.47;31.16;101005.75;5178489;28;20409;-80
2022/08/13 11:10:45;;;;;;;0.20;0.20;;;;;;;27.56;31.54;100998.63;5191915;28;20032;-79
2022/08/13 11:13:15;;;;;;;0.20;0.20;;;;;;;27.64;31.11;101001.44;5194933;28;20032;-81
2022/08/13 11:15:46;;;;;;;0.50;0.50;;;;;;;27.67;31.41;100992.22;5199339;28;20034;-77
2022/08/13 11:18:20;;;;;;;0.28;0.28;;;;;;;27.71;31.43;100984.69;5235501;28;20696;-79
2022/08/13 11:21:02;;;;;;;0.22;0.22;;;;;;;27.78;31.13;100983.94;5211220;28;20097;-78
2022/08/13 11:23:36;;;;;;;0.30;0.30;;;;;;;27.90;31.40;100987.28;5170616;28;20041;-79
2022/08/13 11:26:10;;;;;;;0.20;0.20;;;;;;;27.96;30.59;100980.47;5190690;28;20629;-79
2022/08/13 11:28:41;;;;;;;0.50;0.50;;;;;;;28.02;30.67;100979.84;5186456;28;20102;-78
2022/08/13 11:31:11;;;;;;;0.30;0.30;;;;;;;28.20;29.33;100982.66;5216816;28;20092;-79
2022/08/13 11:33:42;;;;;;;0.20;0.20;;;;;;;28.12;29.98;100971.78;5184298;28;20025;-79
2022/08/13 11:36:12;;;;;;;0.40;0.40;;;;;;;28.14;30.12;100977.00;5189184;28;20402;-81
2022/08/13 11:38:43;;;;;;;0.30;0.30;;;;;;;28.16;30.22;100964.22;5184713;28;20388;-79
2022/08/13 11:41:14;;;;;;;0.20;0.20;;;;;;;28.18;30.08;100957.66;5184018;28;20143;-80
2022/08/13 11:43:45;;;;;;;0.28;0.28;;;;;;;28.31;30.34;100961.84;5155858;28;20183;-80
2022/08/13 11:46:16;;;;;;;0.30;0.30;;;;;;;28.35;28.96;100963.25;5153576;28;20049;-78
2022/08/13 11:48:47;;;;;;;0.63;0.63;;;;;;;28.39;29.15;100951.13;5176519;28;20026;-78
2022/08/13 11:51:18;;;;;;;0.20;0.20;;;;;;;28.48;27.70;100954.78;5208695;28;20041;-79
2022/08/13 11:53:48;;;;;;;0.45;0.45;;;;;;;28.56;29.39;100954.84;5225420;28;20084;-79
2022/08/13 11:56:19;;;;;;;0.35;0.35;;;;;;;28.63;28.61;100961.31;5205611;28;20053;-77
2022/08/13 11:58:54;;;;;;;0.20;0.20;;;;;;;28.68;29.21;100952.78;5212742;28;20029;-79
2022/08/13 12:01:25;;;;;;;0.30;0.30;;;;;;;28.81;27.90;100960.50;5201405;28;20037;-80
2022/08/13 12:03:55;;;;;;;0.10;0.10;;;;;;;28.93;29.08;100945.75;5205070;28;20098;-79
2022/08/13 12:06:26;;;;;;;0.20;0.20;;;;;;;28.98;28.83;100943.44;5182972;28;20022;-79
2022/08/13 12:08:57;;;;;;;0.20;0.20;;;;;;;29.01;28.27;100951.22;5150698;28;20029;-79
2022/08/13 12:11:29;;;;;;;0.40;0.40;;;;;;;29.11;28.90;100945.72;5160495;28;20699;-80
2022/08/13 12:14:03;;;;;;;0.20;0.20;;;;;;;29.12;28.74;100947.44;5197492;28;20073;-78
2022/08/13 12:16:37;;;;;;;0.20;0.20;;;;;;;29.23;28.59;100945.44;5162295;28;20116;-80